DRRN/NIM METAR and TAF weather

Enter ICAO airport designator
Station Type Date Time Source
DRRN METAR 2019/02/23 02:00 UTC NOAA

DRRN 230200Z 34009KT 320V020 8000 NSC 26/M14 Q1011 NOSIG


Station Type Date Time Source
DRRN Decoded METAR 2019/02/23 02:00 UTC NOAA

Niamey-Aero, Niger (DRRN) 13-29N 002-10E 227M
Feb 22, 2019 - 09:00 PM EST / 2019.02.23 0200 UTC
Wind: from the NNW (340 degrees) at 10 MPH (9 KT) (direction variable):0
Visibility: 4 mile(s):0
Temperature: 78 F (26 C)
Dew Point: 6 F (-14 C)
Relative Humidity: 6%
Pressure (altimeter): 29.85 in. Hg (1011 hPa)
ob: DRRN 230200Z 34009KT 320V020 8000 NSC 26/M14 Q1011 NOSIG
cycle: 2

Station Type Date Time Source
DRRN TAF 2019/02/22 18:21 UTC NOAA

TAF DRRN 221700Z 2218/2324 03005KT 8000 NSC
TEMPO 2218/2220 4000 DU
BECMG 2306/2308 36015KT
TEMPO 2309/2312 3500 BLDU


Example: see airport list